Time;durP1;ratioP1;P1;durP2;ratioP2;P2;SDS_P1;SDS_P2;PMS_P1;PMS_P2;Temp;Humidity;BMP_temperature;BMP_pressure;BME280_temperature;BME280_humidity;BME280_pressure;Samples;Min_cycle;Max_cycle;Signal;HPM_P1;HPM_P2
2022/03/16 00:01:51;;;;;;;;;23.00;18.50;;;;;8.25;79.13;102368.06;5069008;28;11467;-72
2022/03/16 00:04:18;;;;;;;;;22.00;18.75;;;;;8.24;79.69;102362.78;5093323;28;11838;-71
2022/03/16 00:06:51;;;;;;;;;30.25;23.25;;;;;8.24;79.51;102363.66;5082490;28;11479;-71
2022/03/16 00:09:28;;;;;;;;;22.50;20.50;;;;;8.24;79.46;102366.34;5070040;28;11544;-74
2022/03/16 00:12:07;;;;;;;;;20.50;19.50;;;;;8.22;79.25;102370.16;5077506;28;11465;-72
2022/03/16 00:15:02;;;;;;;;;24.75;22.50;;;;;8.06;79.35;102353.63;5077325;28;11590;-72
2022/03/16 00:17:32;;;;;;;;;25.00;21.50;;;;;8.14;79.50;102365.44;5095312;28;11529;-72
2022/03/16 00:19:59;;;;;;;;;23.50;22.75;;;;;8.19;79.51;102365.91;5072312;28;11489;-72
2022/03/16 00:22:25;;;;;;;;;22.00;17.00;;;;;8.13;79.75;102369.13;5090921;28;11487;-73
2022/03/16 00:24:52;;;;;;;;;24.75;24.00;;;;;8.11;80.14;102373.81;5069686;28;11353;-71
2022/03/16 00:27:19;;;;;;;;;23.50;21.00;;;;;8.06;80.13;102365.25;5097632;28;11519;-72
2022/03/16 00:29:46;;;;;;;;;29.00;27.00;;;;;7.98;79.72;102383.97;5111055;28;12178;-72
2022/03/16 00:32:13;;;;;;;;;19.25;18.00;;;;;7.97;80.20;102376.88;5093555;28;11494;-74
2022/03/16 00:34:40;;;;;;;;;22.50;21.25;;;;;7.92;80.60;102377.25;5078259;28;11257;-73
2022/03/16 00:37:07;;;;;;;;;26.50;26.50;;;;;7.98;80.37;102370.50;5089945;28;11509;-72
2022/03/16 00:39:34;;;;;;;;;30.75;26.50;;;;;7.93;80.65;102372.72;5073354;28;11468;-72
2022/03/16 00:42:03;;;;;;;;;26.25;23.00;;;;;7.92;80.28;102371.00;5098603;28;11520;-71
2022/03/16 00:44:34;;;;;;;;;27.25;27.25;;;;;7.88;80.91;102374.97;5089894;28;11481;-72
2022/03/16 00:47:03;;;;;;;;;28.50;26.00;;;;;7.87;80.97;102370.56;5112678;28;11472;-73
2022/03/16 00:49:30;;;;;;;;;19.75;17.50;;;;;7.88;80.81;102372.25;5096656;28;11494;-73
2022/03/16 00:51:58;;;;;;;;;28.75;26.25;;;;;7.83;81.04;102379.91;5071951;28;11558;-70
2022/03/16 00:54:24;;;;;;;;;22.75;22.25;;;;;7.77;80.87;102375.91;5094363;28;11423;-72
2022/03/16 00:56:52;;;;;;;;;27.25;26.25;;;;;7.76;81.02;102376.91;5070414;28;11550;-72
2022/03/16 00:59:19;;;;;;;;;24.50;22.75;;;;;7.76;81.29;102368.81;5083164;28;11494;-72
2022/03/16 01:01:48;;;;;;;;;32.25;27.25;;;;;7.73;80.77;102366.38;5091361;28;11629;-71
2022/03/16 01:04:15;;;;;;;;;25.50;23.25;;;;;7.70;80.85;102372.91;5104778;28;11507;-71
2022/03/16 01:06:42;;;;;;;;;26.25;26.00;;;;;7.72;80.99;102373.63;5104530;28;11505;-72
2022/03/16 01:09:11;;;;;;;;;22.00;21.00;;;;;7.75;81.39;102371.63;5078560;28;11597;-71
2022/03/16 01:11:40;;;;;;;;;27.75;25.00;;;;;7.72;81.34;102370.91;5089841;28;13820;-70
2022/03/16 01:14:23;;;;;;;;;20.00;19.50;;;;;7.63;81.15;102363.59;5084053;28;11476;-72
2022/03/16 01:16:57;;;;;;;;;32.25;29.25;;;;;7.65;80.85;102374.25;5072257;28;11610;-72
2022/03/16 01:19:24;;;;;;;;;29.75;27.00;;;;;7.60;81.75;102363.03;5074713;28;11453;-72
2022/03/16 01:21:52;;;;;;;;;25.00;22.00;;;;;7.63;81.74;102366.31;5100730;28;11544;-73
2022/03/16 01:24:19;;;;;;;;;26.75;19.00;;;;;7.58;81.96;102365.00;5107740;28;11529;-73
2022/03/16 01:26:46;;;;;;;;;32.50;23.00;;;;;7.62;81.99;102359.22;5113870;28;11451;-71
2022/03/16 01:29:12;;;;;;;;;28.50;25.25;;;;;7.64;81.97;102362.63;5112225;28;11469;-71
2022/03/16 01:31:39;;;;;;;;;21.25;21.25;;;;;7.63;82.40;102362.75;5112184;28;11522;-72
2022/03/16 01:34:05;;;;;;;;;32.25;28.50;;;;;7.59;82.27;102364.88;5080670;28;12279;-73
2022/03/16 01:36:32;;;;;;;;;29.25;24.00;;;;;7.59;82.36;102366.69;5099727;28;11681;-72
2022/03/16 01:38:58;;;;;;;;;31.00;25.25;;;;;7.50;82.89;102364.81;5076165;28;11492;-71
2022/03/16 01:41:25;;;;;;;;;27.00;27.00;;;;;7.51;82.83;102361.13;5086448;28;11503;-72
2022/03/16 01:43:56;;;;;;;;;30.00;28.50;;;;;7.51;83.05;102367.38;5089549;28;11554;-72
2022/03/16 01:46:23;;;;;;;;;30.50;27.00;;;;;7.50;83.13;102368.38;5113061;28;11484;-73
2022/03/16 01:48:53;;;;;;;;;33.00;29.00;;;;;7.50;82.46;102368.38;5079496;28;11542;-72
2022/03/16 01:51:21;;;;;;;;;38.50;34.25;;;;;7.45;83.21;102375.13;5082393;28;11496;-73
2022/03/16 01:53:49;;;;;;;;;24.50;22.50;;;;;7.47;83.24;102375.84;5092284;28;11509;-73
2022/03/16 01:56:16;;;;;;;;;33.75;28.00;;;;;7.51;83.47;102367.38;5092426;28;11468;-73
2022/03/16 01:58:43;;;;;;;;;35.75;35.00;;;;;7.46;83.65;102375.00;5092672;28;11598;-72
2022/03/16 02:01:10;;;;;;;;;35.50;32.75;;;;;7.41;83.49;102369.97;5086919;28;11540;-72
2022/03/16 02:03:37;;;;;;;;;34.25;31.25;;;;;7.38;83.58;102370.25;5100687;28;11501;-73
2022/03/16 02:06:03;;;;;;;;;27.25;27.25;;;;;7.38;83.86;102367.56;5102134;28;11482;-72
2022/03/16 02:08:32;;;;;;;;;34.50;33.75;;;;;7.32;84.08;102370.78;5067148;28;11472;-71
2022/03/16 02:10:59;;;;;;;;;30.50;27.25;;;;;7.31;84.02;102369.06;5084274;28;11580;-71
2022/03/16 02:13:25;;;;;;;;;30.00;26.75;;;;;7.32;84.32;102367.22;5088289;28;11465;-70
2022/03/16 02:15:52;;;;;;;;;33.00;31.25;;;;;7.33;83.87;102369.78;5094365;28;11474;-70
2022/03/16 02:18:18;;;;;;;;;32.50;30.75;;;;;7.34;84.39;102367.94;5094960;28;11530;-70
2022/03/16 02:20:51;;;;;;;;;37.75;32.75;;;;;7.29;84.10;102365.66;5102918;28;11561;-71
2022/03/16 02:23:17;;;;;;;;;35.25;27.25;;;;;7.28;84.17;102365.78;5098753;28;11465;-72
2022/03/16 02:25:49;;;;;;;;;31.00;26.75;;;;;7.24;84.22;102354.41;5091710;28;11481;-71
2022/03/16 02:28:17;;;;;;;;;37.50;31.00;;;;;7.20;84.65;102363.75;5104028;28;11469;-70
2022/03/16 02:30:43;;;;;;;;;28.50;26.00;;;;;7.27;84.50;102366.78;5113879;28;11463;-71
2022/03/16 02:33:10;;;;;;;;;25.00;25.00;;;;;7.22;84.05;102363.63;5123080;27;12256;-71
2022/03/16 02:35:37;;;;;;;;;30.50;27.25;;;;;7.20;84.27;102361.06;5089748;28;11530;-72
2022/03/16 02:38:04;;;;;;;;;30.00;29.25;;;;;7.21;84.26;102356.53;5090525;28;12214;-72
2022/03/16 02:40:30;;;;;;;;;32.50;29.75;;;;;7.18;84.12;102354.91;5102386;28;11442;-71
2022/03/16 02:42:57;;;;;;;;;32.00;27.00;;;;;7.19;84.30;102347.69;5111343;28;11471;-71
2022/03/16 02:45:24;;;;;;;;;41.75;32.50;;;;;7.16;84.16;102342.56;5094768;28;11462;-71
2022/03/16 02:47:51;;;;;;;;;31.00;26.00;;;;;7.12;84.37;102347.38;5111824;28;11459;-72
2022/03/16 02:50:17;;;;;;;;;40.00;37.00;;;;;7.18;84.95;102344.13;5105368;28;11503;-71
2022/03/16 02:52:45;;;;;;;;;38.75;35.00;;;;;7.19;84.71;102339.59;5095866;28;12451;-72
2022/03/16 02:55:32;;;;;;;;;43.75;37.50;;;;;7.15;85.01;102336.31;5108599;28;11476;-72
2022/03/16 02:57:59;;;;;;;;;47.00;38.50;;;;;7.05;84.48;102322.78;5113100;28;12497;-72
2022/03/16 03:00:26;;;;;;;;;42.25;42.00;;;;;6.91;85.27;102319.53;5101230;28;11578;-72
2022/03/16 03:02:54;;;;;;;;;40.00;35.00;;;;;6.90;85.36;102317.84;5093531;28;11637;-71
2022/03/16 03:05:22;;;;;;;;;42.50;35.50;;;;;6.86;85.96;102321.78;5093162;28;11499;-72
2022/03/16 03:07:48;;;;;;;;;39.50;33.00;;;;;6.78;86.09;102327.81;5101862;28;11533;-72
2022/03/16 03:10:18;;;;;;;;;46.75;41.50;;;;;6.77;86.63;102326.94;5080537;28;11488;-71
2022/03/16 03:12:45;;;;;;;;;56.25;44.00;;;;;6.71;86.74;102327.47;5082400;28;11560;-72
2022/03/16 03:15:13;;;;;;;;;35.00;32.75;;;;;6.67;86.67;102320.59;5092014;28;11527;-71
2022/03/16 03:17:41;;;;;;;;;35.00;27.75;;;;;6.75;86.65;102330.75;5091144;28;11767;-71
2022/03/16 03:20:09;;;;;;;;;40.25;37.25;;;;;6.67;86.23;102326.00;5089562;28;12345;-71
2022/03/16 03:22:36;;;;;;;;;38.50;34.75;;;;;6.65;86.16;102322.56;5092307;28;11676;-71
2022/03/16 03:25:02;;;;;;;;;44.25;39.00;;;;;6.65;86.29;102321.72;5094942;28;11518;-71
2022/03/16 03:27:30;;;;;;;;;41.25;38.00;;;;;6.60;86.33;102330.19;5106789;28;11599;-72
2022/03/16 03:29:57;;;;;;;;;44.25;38.50;;;;;6.63;86.55;102327.22;5109899;28;11529;-71
2022/03/16 03:32:23;;;;;;;;;33.25;33.00;;;;;6.64;86.33;102325.41;5111014;28;11520;-71
2022/03/16 03:34:51;;;;;;;;;38.25;37.00;;;;;6.64;86.29;102320.88;5100120;28;11555;-70
2022/03/16 03:37:18;;;;;;;;;38.25;35.50;;;;;6.65;86.43;102327.09;5085009;28;12232;-69
2022/03/16 03:39:46;;;;;;;;;43.50;39.50;;;;;6.69;86.33;102323.16;5086968;28;11609;-71
2022/03/16 03:42:12;;;;;;;;;37.00;34.50;;;;;6.70;86.36;102330.28;5096038;28;11631;-70
2022/03/16 03:44:39;;;;;;;;;34.50;30.75;;;;;6.70;86.30;102332.97;5098775;28;11536;-70
2022/03/16 03:47:07;;;;;;;;;33.25;29.75;;;;;6.68;86.09;102334.91;5103993;28;11553;-71
2022/03/16 03:49:36;;;;;;;;;42.75;40.50;;;;;6.48;86.51;102331.19;5101613;28;11481;-70
2022/03/16 03:52:04;;;;;;;;;47.00;39.00;;;;;6.64;87.03;102330.78;5089284;28;11573;-71
2022/03/16 03:54:31;;;;;;;;;37.25;31.25;;;;;6.63;86.95;102329.06;5077754;28;12302;-72
2022/03/16 03:56:58;;;;;;;;;44.25;38.75;;;;;6.63;86.58;102326.38;5095740;28;11524;-70
2022/03/16 03:59:25;;;;;;;;;38.75;35.00;;;;;6.61;86.77;102328.34;5102312;28;11531;-70
2022/03/16 04:01:52;;;;;;;;;43.00;39.50;;;;;6.57;86.95;102326.88;5110181;28;11582;-71
2022/03/16 04:04:19;;;;;;;;;42.50;35.50;;;;;6.51;87.09;102333.63;5094065;28;11553;-69
2022/03/16 04:06:45;;;;;;;;;47.25;38.75;;;;;6.48;87.95;102323.13;5096335;28;11640;-72
2022/03/16 04:09:12;;;;;;;;;38.75;34.25;;;;;6.47;88.01;102330.34;5074284;28;11611;-72
2022/03/16 04:11:38;;;;;;;;;40.25;37.00;;;;;6.40;87.94;102328.25;5110322;28;11532;-71
2022/03/16 04:14:05;;;;;;;;;36.50;31.25;;;;;6.42;88.33;102323.63;5096353;28;11622;-70
2022/03/16 04:16:32;;;;;;;;;44.25;42.00;;;;;6.40;88.13;102314.81;5096528;28;11435;-71
2022/03/16 04:18:59;;;;;;;;;39.75;34.50;;;;;6.31;88.69;102321.81;5094750;28;11685;-71
2022/03/16 04:21:25;;;;;;;;;38.50;36.75;;;;;6.25;88.59;102318.78;5113757;28;11545;-71
2022/03/16 04:23:52;;;;;;;;;33.75;30.00;;;;;6.28;89.18;102308.63;5109506;28;11499;-72
2022/03/16 04:26:18;;;;;;;;;44.50;39.00;;;;;6.27;89.02;102308.75;5109427;28;11485;-71
2022/03/16 04:28:45;;;;;;;;;47.00;39.75;;;;;6.30;88.96;102311.19;5097422;28;12497;-71
2022/03/16 04:31:12;;;;;;;;;54.75;42.00;;;;;6.23;89.09;102309.97;5092625;28;11551;-71
2022/03/16 04:33:39;;;;;;;;;37.75;33.25;;;;;6.14;88.74;102307.03;5092589;28;11692;-73
2022/03/16 04:36:06;;;;;;;;;51.50;42.25;;;;;6.22;89.17;102306.44;5108913;28;11549;-70
2022/03/16 04:38:33;;;;;;;;;35.00;35.00;;;;;6.20;88.96;102305.72;5098284;28;11577;-71
2022/03/16 04:41:03;;;;;;;;;44.25;40.00;;;;;6.22;88.83;102306.44;5093199;28;11988;-72
2022/03/16 04:43:30;;;;;;;;;36.50;31.25;;;;;6.28;88.66;102299.69;5095291;28;11615;-71
2022/03/16 04:45:56;;;;;;;;;34.50;34.25;;;;;6.26;88.55;102307.03;5095027;28;11529;-71
2022/03/16 04:48:23;;;;;;;;;53.50;41.00;;;;;6.23;88.73;102305.44;5093566;28;11614;-71
2022/03/16 04:50:49;;;;;;;;;45.00;38.50;;;;;6.25;88.83;102308.03;5087700;28;11599;-73
2022/03/16 04:53:16;;;;;;;;;51.75;42.75;;;;;6.19;88.72;102309.34;5116615;27;11537;-71
2022/03/16 04:55:42;;;;;;;;;47.75;42.00;;;;;6.16;89.09;102310.44;5094659;28;11658;-71
2022/03/16 04:58:09;;;;;;;;;47.75;42.75;;;;;6.16;88.85;102307.75;5094506;28;11543;-71
2022/03/16 05:00:40;;;;;;;;;45.25;40.00;;;;;6.10;88.85;102307.41;5091367;28;11631;-71
2022/03/16 05:03:06;;;;;;;;;41.75;39.50;;;;;6.11;89.11;102318.03;5091265;28;11527;-70
2022/03/16 05:05:33;;;;;;;;;37.75;35.25;;;;;6.07;89.16;102308.53;5111179;27;12330;-71
2022/03/16 05:08:00;;;;;;;;;52.25;41.00;;;;;5.96;88.98;102305.84;5093694;28;11564;-71
2022/03/16 05:10:26;;;;;;;;;44.00;37.00;;;;;5.90;88.78;102306.31;5092319;28;11517;-69
2022/03/16 05:12:53;;;;;;;;;48.00;40.75;;;;;6.00;89.77;102301.94;5101146;28;11618;-71
2022/03/16 05:15:20;;;;;;;;;49.50;38.25;;;;;5.97;89.45;102299.50;5091654;28;11563;-71
2022/03/16 05:17:47;;;;;;;;;47.50;41.25;;;;;5.98;88.88;102311.09;5113084;28;11526;-70
2022/03/16 05:20:15;;;;;;;;;53.00;43.50;;;;;5.99;88.90;102304.75;5098535;28;11674;-71
2022/03/16 05:22:41;;;;;;;;;39.00;33.50;;;;;5.99;88.96;102307.44;5093713;28;11604;-72
2022/03/16 05:25:10;;;;;;;;;33.00;30.50;;;;;6.00;88.63;102301.09;5089146;28;11547;-71
2022/03/16 05:27:36;;;;;;;;;43.00;37.75;;;;;5.97;88.42;102293.25;5096310;28;11471;-71
2022/03/16 05:30:04;;;;;;;;;42.25;37.50;;;;;6.00;88.49;102303.78;5090438;28;12973;-69
2022/03/16 05:32:31;;;;;;;;;41.50;40.25;;;;;5.95;88.44;102305.94;5101396;28;11662;-72
2022/03/16 05:34:58;;;;;;;;;47.75;40.75;;;;;5.88;88.50;102303.72;5090376;28;11536;-71
2022/03/16 05:37:25;;;;;;;;;46.25;40.75;;;;;5.87;88.00;102303.84;5090711;28;11565;-71
2022/03/16 05:39:52;;;;;;;;;45.25;38.50;;;;;5.82;88.42;102304.22;5092394;28;12247;-70
2022/03/16 05:42:19;;;;;;;;;48.25;41.00;;;;;5.73;88.43;102304.09;5083740;28;11673;-71
2022/03/16 05:44:46;;;;;;;;;47.50;40.00;;;;;5.74;88.79;102316.56;5099647;28;11564;-70
2022/03/16 05:47:12;;;;;;;;;47.00;39.50;;;;;5.78;88.78;102310.81;5091999;28;11557;-71
2022/03/16 05:49:39;;;;;;;;;49.50;40.50;;;;;5.76;88.64;102317.28;5091875;28;11512;-72
2022/03/16 05:52:06;;;;;;;;;41.25;35.25;;;;;5.84;88.28;102317.53;5092616;28;11559;-70
2022/03/16 05:54:33;;;;;;;;;37.50;34.00;;;;;5.92;87.85;102317.81;5105330;28;11541;-71
2022/03/16 05:56:59;;;;;;;;;44.50;38.25;;;;;5.93;87.16;102315.97;5090364;28;11610;-71
2022/03/16 05:59:31;;;;;;;;;36.50;33.00;;;;;5.97;87.22;102321.00;5091642;28;11610;-71
2022/03/16 06:01:58;;;;;;;;;34.50;28.75;;;;;6.02;87.17;102317.94;5079813;28;11561;-69
2022/03/16 06:04:24;;;;;;;;;34.25;29.75;;;;;6.05;86.83;102326.59;5100863;28;11535;-71
2022/03/16 06:06:51;;;;;;;;;38.75;32.00;;;;;5.99;86.07;102327.09;5104728;28;11549;-71
2022/03/16 06:09:19;;;;;;;;;27.00;22.75;;;;;6.08;86.37;102336.25;5092238;28;11536;-72
2022/03/16 06:11:45;;;;;;;;;35.75;29.50;;;;;6.05;85.90;102333.81;5089182;28;11516;-71
2022/03/16 06:14:12;;;;;;;;;27.75;24.75;;;;;6.17;85.96;102332.81;5086069;28;11474;-70
2022/03/16 06:16:38;;;;;;;;;34.50;31.25;;;;;6.22;85.44;102327.94;5110037;28;11468;-69
2022/03/16 06:19:05;;;;;;;;;37.50;32.00;;;;;6.18;84.91;102330.00;5090714;28;11569;-72
2022/03/16 06:21:31;;;;;;;;;28.50;26.25;;;;;6.61;84.16;102328.34;5103083;28;11566;-71
2022/03/16 06:23:58;;;;;;;;;30.50;27.00;;;;;6.88;82.53;102339.50;5099516;27;11650;-72
2022/03/16 06:26:24;;;;;;;;;27.00;24.25;;;;;6.73;82.17;102341.66;5086524;28;11580;-71
2022/03/16 06:28:51;;;;;;;;;33.25;29.00;;;;;6.59;82.36;102330.31;5091031;28;11523;-72
2022/03/16 06:31:17;;;;;;;;;32.25;27.00;;;;;6.68;82.43;102332.22;5093040;28;12164;-72
2022/03/16 06:33:44;;;;;;;;;31.25;27.00;;;;;7.37;80.83;102327.28;5097126;28;11499;-72
2022/03/16 06:36:10;;;;;;;;;29.75;26.00;;;;;7.48;78.97;102323.66;5107469;28;11459;-72
2022/03/16 06:38:37;;;;;;;;;35.25;29.25;;;;;7.55;78.37;102319.44;5100970;28;11461;-70
2022/03/16 06:41:03;;;;;;;;;38.75;33.25;;;;;7.92;77.36;102323.31;5091137;28;11534;-72
2022/03/16 06:43:30;;;;;;;;;35.75;27.50;;;;;8.24;75.96;102323.19;5094668;28;11625;-70
2022/03/16 06:45:56;;;;;;;;;32.00;28.25;;;;;8.60;73.75;102323.56;5090410;28;11502;-70
2022/03/16 06:48:23;;;;;;;;;36.50;34.25;;;;;8.27;73.22;102324.75;5087182;28;11613;-69
2022/03/16 06:50:50;;;;;;;;;40.00;35.50;;;;;8.68;72.72;102320.19;5084351;28;12264;-71
2022/03/16 06:53:17;;;;;;;;;37.00;34.25;;;;;8.76;72.11;102323.03;5093660;28;11625;-68
2022/03/16 06:55:43;;;;;;;;;35.00;30.25;;;;;8.38;73.60;102326.50;5101188;28;12299;-71
2022/03/16 06:58:10;;;;;;;;;32.50;24.25;;;;;8.39;74.58;102330.91;5090143;28;11566;-69
2022/03/16 07:00:36;;;;;;;;;29.25;29.25;;;;;8.60;74.09;102337.06;5069844;28;11488;-73
2022/03/16 07:03:05;;;;;;;;;40.50;34.00;;;;;9.31;72.60;102334.94;5070107;28;11482;-72
2022/03/16 07:05:38;;;;;;;;;28.50;27.75;;;;;9.69;67.70;102334.03;5078643;28;11479;-72
2022/03/16 07:08:07;;;;;;;;;41.00;34.00;;;;;9.31;70.33;102334.09;5076581;28;11536;-72
2022/03/16 07:10:36;;;;;;;;;37.00;32.75;;;;;8.73;72.11;102334.09;5074183;28;11512;-71
2022/03/16 07:13:10;;;;;;;;;34.50;30.00;;;;;8.88;72.59;102341.63;5086844;28;11491;-72
2022/03/16 07:15:44;;;;;;;;;38.00;36.25;;;;;8.91;73.75;102333.25;5090890;28;11469;-71
2022/03/16 07:18:20;;;;;;;;;26.50;26.00;;;;;9.01;72.41;102337.81;5086462;28;11550;-72
2022/03/16 07:20:49;;;;;;;;;29.25;25.75;;;;;9.03;72.26;102328.56;5098690;28;11503;-71
2022/03/16 07:23:20;;;;;;;;;47.25;38.75;;;;;8.79;72.93;102329.00;5076872;28;11127;-72
2022/03/16 07:25:49;;;;;;;;;38.25;33.50;;;;;9.01;72.12;102321.63;5112706;28;11535;-72
2022/03/16 07:28:20;;;;;;;;;28.50;28.00;;;;;9.18;72.19;102323.59;5101464;28;11546;-72
2022/03/16 07:30:47;;;;;;;;;30.75;30.25;;;;;9.36;71.08;102313.75;5090198;28;11447;-71
2022/03/16 07:33:15;;;;;;;;;42.00;33.50;;;;;9.53;71.09;102310.31;5092151;28;11512;-71
2022/03/16 07:35:42;;;;;;;;;33.50;30.25;;;;;9.52;71.02;102318.56;5104865;28;11582;-72
2022/03/16 07:38:09;;;;;;;;;37.75;36.25;;;;;9.36;70.64;102311.03;5094891;28;11505;-71
2022/03/16 07:40:36;;;;;;;;;37.50;35.50;;;;;9.20;71.33;102306.25;5108989;28;11473;-71
2022/03/16 07:43:05;;;;;;;;;34.00;32.75;;;;;9.46;71.02;102306.50;5111197;27;11477;-70
2022/03/16 07:45:32;;;;;;;;;39.75;34.25;;;;;9.45;70.79;102304.78;5095287;28;11568;-71
2022/03/16 07:47:59;;;;;;;;;44.00;36.00;;;;;9.52;70.27;102297.78;5090034;28;11975;-72
2022/03/16 07:50:26;;;;;;;;;32.50;26.50;;;;;9.57;70.21;102298.19;5095544;28;11490;-71
2022/03/16 07:52:53;;;;;;;;;28.00;26.25;;;;;9.46;69.30;102292.97;5109972;28;11246;-71
2022/03/16 07:55:20;;;;;;;;;30.50;29.75;;;;;9.46;69.89;102289.41;5094026;28;11494;-71
2022/03/16 07:57:47;;;;;;;;;33.75;30.50;;;;;9.59;70.00;102297.19;5088319;28;11542;-71
2022/03/16 08:00:15;;;;;;;;;35.50;27.25;;;;;9.73;68.57;102286.78;5094674;28;11533;-71
2022/03/16 08:02:46;;;;;;;;;39.00;31.00;;;;;9.80;68.47;102273.50;5073045;28;11557;-71
2022/03/16 08:05:14;;;;;;;;;34.50;29.00;;;;;9.77;68.04;102274.66;5098440;28;11473;-71
2022/03/16 08:07:41;;;;;;;;;38.75;33.50;;;;;9.88;68.11;102279.00;5079397;28;11505;-69
2022/03/16 08:10:09;;;;;;;;;36.00;33.00;;;;;10.07;66.21;102278.06;5073967;28;11505;-69
2022/03/16 08:12:35;;;;;;;;;31.75;30.50;;;;;9.96;67.48;102281.84;5062869;28;11525;-71
2022/03/16 08:15:02;;;;;;;;;33.50;28.25;;;;;10.04;67.56;102267.53;5060050;28;11522;-69
2022/03/16 08:17:29;;;;;;;;;40.50;33.75;;;;;10.04;67.83;102259.44;5078139;28;11505;-71
2022/03/16 08:19:57;;;;;;;;;29.25;27.50;;;;;10.06;66.60;102265.53;5082966;28;11500;-71
2022/03/16 08:22:25;;;;;;;;;38.50;31.75;;;;;10.16;66.86;102266.31;5074126;28;11488;-71
2022/03/16 08:24:53;;;;;;;;;41.50;34.25;;;;;10.18;66.19;102275.19;5079822;28;11526;-70
2022/03/16 08:27:22;;;;;;;;;36.00;31.00;;;;;10.17;66.09;102273.47;5077205;28;11491;-71
2022/03/16 08:29:49;;;;;;;;;32.00;30.75;;;;;10.16;67.43;102266.31;5087559;28;11453;-72
2022/03/16 08:32:17;;;;;;;;;30.50;29.00;;;;;10.12;66.33;102267.63;5084830;28;11506;-72
2022/03/16 08:34:44;;;;;;;;;40.00;32.25;;;;;10.30;65.36;102263.16;5096757;28;11467;-72
2022/03/16 08:37:10;;;;;;;;;29.75;27.75;;;;;10.28;65.87;102281.41;5085438;28;11460;-70
2022/03/16 08:39:41;;;;;;;;;35.00;31.50;;;;;10.06;66.08;102271.81;5094167;28;11143;-71
2022/03/16 08:42:11;;;;;;;;;32.50;29.75;;;;;9.99;65.89;102278.81;5093602;28;11199;-71
2022/03/16 08:44:37;;;;;;;;;32.25;28.50;;;;;10.12;65.88;102267.63;5089381;28;11490;-72
2022/03/16 08:47:05;;;;;;;;;25.25;24.25;;;;;10.26;65.58;102263.63;5092625;28;11487;-72
2022/03/16 08:49:32;;;;;;;;;27.00;25.50;;;;;10.20;65.11;102264.19;5080514;28;11254;-70
2022/03/16 08:51:59;;;;;;;;;25.25;23.50;;;;;10.32;65.65;102261.13;5080909;28;11544;-71
2022/03/16 08:54:26;;;;;;;;;28.50;26.25;;;;;10.24;64.97;102263.75;5079993;28;11236;-72
2022/03/16 08:56:54;;;;;;;;;35.25;30.00;;;;;10.33;64.17;102253.88;5093708;28;11199;-70
2022/03/16 08:59:20;;;;;;;;;20.25;19.75;;;;;10.43;64.18;102260.09;5063071;28;11884;-72
2022/03/16 09:01:47;;;;;;;;;27.25;25.00;;;;;10.33;64.44;102251.16;5087201;28;10995;-69
2022/03/16 09:04:14;;;;;;;;;30.00;25.25;;;;;10.30;63.95;102260.44;5090058;28;11184;-73
2022/03/16 09:06:40;;;;;;;;;26.00;20.25;;;;;10.51;63.75;102257.44;5105061;28;11164;-70
2022/03/16 09:09:07;;;;;;;;;31.00;25.25;;;;;10.59;63.20;102249.41;5095191;28;11017;-72
2022/03/16 09:11:34;;;;;;;;;24.75;22.00;;;;;10.94;62.34;102250.41;5087487;28;11359;-70
2022/03/16 09:14:02;;;;;;;;;16.50;16.50;;;;;11.44;61.29;102250.59;5104633;28;11263;-71
2022/03/16 09:16:29;;;;;;;;;24.25;22.00;;;;;11.96;58.89;102256.00;5089700;28;10912;-71
2022/03/16 09:18:56;;;;;;;;;26.25;21.25;;;;;12.06;58.11;102250.41;5088062;28;11135;-70
2022/03/16 09:21:25;;;;;;;;;28.75;28.25;;;;;12.01;57.59;102249.03;5086680;28;10939;-71
2022/03/16 09:23:53;;;;;;;;;28.50;23.00;;;;;12.25;57.02;102248.28;5091021;28;11119;-68
2022/03/16 09:26:22;;;;;;;;;25.00;21.25;;;;;12.49;56.58;102250.19;5069704;28;11015;-72
2022/03/16 09:28:50;;;;;;;;;21.00;18.75;;;;;12.38;56.72;102241.50;5091337;28;10961;-71
2022/03/16 09:31:17;;;;;;;;;22.25;16.50;;;;;12.61;56.38;102232.53;5093945;28;10745;-71
2022/03/16 09:33:44;;;;;;;;;28.75;23.00;;;;;12.82;54.69;102239.34;5110417;28;10650;-71
2022/03/16 09:36:10;;;;;;;;;18.75;17.25;;;;;12.52;55.18;102233.56;5103499;28;10764;-70
2022/03/16 09:38:37;;;;;;;;;22.25;22.25;;;;;12.91;54.34;102235.63;5096534;28;10496;-70
2022/03/16 09:41:04;;;;;;;;;25.75;20.25;;;;;13.26;54.34;102236.31;5092365;28;10705;-69
2022/03/16 09:43:33;;;;;;;;;20.50;17.75;;;;;13.28;53.32;102235.13;5099180;28;10870;-70
2022/03/16 09:46:07;;;;;;;;;19.50;16.50;;;;;13.40;51.82;102238.34;5091437;28;10294;-70
2022/03/16 09:48:34;;;;;;;;;21.25;19.75;;;;;13.67;51.76;102229.75;5080898;28;10340;-71
2022/03/16 09:51:01;;;;;;;;;14.50;13.25;;;;;13.65;51.67;102233.69;5105752;28;10452;-71
2022/03/16 09:53:27;;;;;;;;;15.50;15.00;;;;;13.63;50.93;102239.31;5093360;28;10206;-71
2022/03/16 09:55:57;;;;;;;;;18.00;17.00;;;;;13.46;50.41;102234.91;5099549;28;10159;-71
2022/03/16 09:58:24;;;;;;;;;12.25;11.25;;;;;13.67;50.02;102228.91;5105855;28;10610;-71
2022/03/16 10:00:53;;;;;;;;;14.75;12.00;;;;;13.79;49.27;102225.63;5091922;28;10142;-70
2022/03/16 10:03:28;;;;;;;;;10.50;9.75;;;;;14.23;48.50;102244.13;5084667;28;10334;-71
2022/03/16 10:05:56;;;;;;;;;12.50;11.50;;;;;14.23;47.51;102244.13;5094164;28;10138;-70
2022/03/16 10:08:31;;;;;;;;;15.00;12.50;;;;;14.31;47.94;102222.28;5095431;28;10076;-72
2022/03/16 10:13:57;;;;;;;;;16.50;12.75;;;;;14.67;47.29;102228.06;5096201;28;9971;-73
2022/03/16 10:16:24;;;;;;;;;10.00;10.00;;;;;14.34;47.25;102224.66;5106247;28;10806;-72
2022/03/16 10:18:54;;;;;;;;;12.00;12.00;;;;;14.45;47.16;102220.72;5097210;28;9922;-70
2022/03/16 10:21:21;;;;;;;;;11.50;11.50;;;;;14.27;47.55;102212.78;5097631;28;10092;-72
2022/03/16 10:23:47;;;;;;;;;16.75;15.75;;;;;14.30;47.49;102208.84;5067692;28;10725;-70
2022/03/16 10:26:18;;;;;;;;;12.00;12.00;;;;;14.44;47.78;102214.41;5084067;28;9989;-72
2022/03/16 10:28:48;;;;;;;;;15.25;15.25;;;;;14.47;46.42;102213.19;5104087;28;10007;-72
2022/03/16 10:31:17;;;;;;;;;16.00;13.25;;;;;14.50;46.62;102207.38;5097887;28;10270;-71
2022/03/16 10:33:47;;;;;;;;;13.50;12.00;;;;;14.57;46.83;102193.88;5098688;28;9996;-72
2022/03/16 10:36:16;;;;;;;;;15.25;15.00;;;;;14.75;46.42;102188.97;5100209;28;9992;-72
2022/03/16 10:38:42;;;;;;;;;21.00;16.00;;;;;14.73;47.27;102191.03;5091906;28;10126;-70
2022/03/16 10:47:24;;;;;;;;;13.50;13.25;;;;;15.06;46.09;102184.22;5102005;28;9942;-72
2022/03/16 10:50:09;;;;;;;;;19.75;16.00;;;;;15.11;45.94;102182.81;5097261;28;9907;-71
2022/03/16 10:52:36;;;;;;;;;16.25;14.25;;;;;15.06;45.70;102205.19;5097860;28;9911;-72
2022/03/16 10:55:04;;;;;;;;;10.25;10.25;;;;;15.03;46.02;102200.97;5073942;28;10542;-72
2022/03/16 10:57:31;;;;;;;;;15.75;13.75;;;;;15.10;45.49;102206.53;5091631;28;9956;-72
2022/03/16 11:00:01;;;;;;;;;13.50;13.50;;;;;15.04;45.94;102205.38;5090478;28;9775;-71
2022/03/16 11:02:33;;;;;;;;;15.25;14.50;;;;;14.86;45.97;102195.84;5098964;28;9944;-71
2022/03/16 11:05:01;;;;;;;;;16.00;13.00;;;;;14.93;46.22;102192.22;5104881;28;9938;-72
2022/03/16 11:07:30;;;;;;;;;14.50;14.00;;;;;15.18;45.16;102178.34;5099964;28;9896;-71
2022/03/16 11:09:57;;;;;;;;;13.50;9.75;;;;;15.18;44.63;102181.06;5089753;28;9998;-71
2022/03/16 11:15:11;;;;;;;;;10.75;9.00;;;;;15.43;44.92;102163.38;5089718;28;9690;-70
2022/03/16 11:17:39;;;;;;;;;11.25;11.00;;;;;15.22;44.11;102180.50;5072533;28;10289;-69
2022/03/16 11:20:08;;;;;;;;;11.75;11.00;;;;;14.95;44.96;102170.22;5092828;28;10082;-73
2022/03/16 11:25:57;;;;;;;;;10.75;10.25;;;;;15.17;44.55;102182.94;5094194;28;9760;-71
2022/03/16 11:28:33;;;;;;;;;8.75;8.75;;;;;15.28;44.23;102168.81;5097992;28;9562;-72
2022/03/16 11:31:00;;;;;;;;;12.00;12.00;;;;;15.14;43.93;102168.84;5081932;28;10543;-70
2022/03/16 11:33:27;;;;;;;;;10.00;10.00;;;;;15.26;43.84;102162.72;5101678;28;9681;-71
2022/03/16 11:35:55;;;;;;;;;13.00;9.50;;;;;14.97;44.71;102168.13;5096114;28;9680;-69